sensor_id;sensor_type;location;lat;lon;timestamp;pressure;altitude;pressure_sealevel;temperature;humidity
16016;BME280;8112;53.592;10.184;2023-08-07T00:00:50;100198.00;;;15.43;100.00
16016;BME280;8112;53.592;10.184;2023-08-07T00:05:53;100195.25;;;15.44;100.00
16016;BME280;8112;53.592;10.184;2023-08-07T00:11:04;100184.88;;;15.41;100.00
16016;BME280;8112;53.592;10.184;2023-08-07T00:16:06;100182.34;;;15.39;100.00
16016;BME280;8112;53.592;10.184;2023-08-07T00:21:09;100179.00;;;15.37;100.00
16016;BME280;8112;53.592;10.184;2023-08-07T00:26:10;100178.44;;;15.34;100.00
16016;BME280;8112;53.592;10.184;2023-08-07T00:31:12;100168.78;;;15.33;100.00
16016;BME280;8112;53.592;10.184;2023-08-07T00:36:15;100157.47;;;15.31;100.00
16016;BME280;8112;53.592;10.184;2023-08-07T00:41:17;100165.31;;;15.32;100.00
16016;BME280;8112;53.592;10.184;2023-08-07T00:46:19;100161.94;;;15.30;100.00
16016;BME280;8112;53.592;10.184;2023-08-07T00:51:22;100155.22;;;15.26;100.00
16016;BME280;8112;53.592;10.184;2023-08-07T00:56:25;100159.69;;;15.25;100.00
16016;BME280;8112;53.592;10.184;2023-08-07T01:01:27;100158.81;;;15.15;100.00
16016;BME280;8112;53.592;10.184;2023-08-07T01:06:30;100155.19;;;15.16;100.00
16016;BME280;8112;53.592;10.184;2023-08-07T01:11:36;100150.16;;;15.13;100.00
16016;BME280;8112;53.592;10.184;2023-08-07T01:16:44;100147.06;;;15.08;100.00
16016;BME280;8112;53.592;10.184;2023-08-07T01:21:49;100140.47;;;15.02;100.00
16016;BME280;8112;53.592;10.184;2023-08-07T01:26:52;100140.88;;;14.98;100.00
16016;BME280;8112;53.592;10.184;2023-08-07T01:31:56;100140.88;;;14.98;100.00
16016;BME280;8112;53.592;10.184;2023-08-07T01:37:02;100133.47;;;14.91;100.00
16016;BME280;8112;53.592;10.184;2023-08-07T01:42:05;100138.06;;;14.89;100.00
16016;BME280;8112;53.592;10.184;2023-08-07T01:47:07;100133.75;;;14.88;100.00
16016;BME280;8112;53.592;10.184;2023-08-07T01:52:10;100132.19;;;14.86;100.00
16016;BME280;8112;53.592;10.184;2023-08-07T01:57:15;100127.03;;;14.84;100.00
16016;BME280;8112;53.592;10.184;2023-08-07T02:02:17;100132.03;;;14.77;100.00
16016;BME280;8112;53.592;10.184;2023-08-07T02:07:20;100131.44;;;14.74;100.00
16016;BME280;8112;53.592;10.184;2023-08-07T02:12:22;100134.09;;;14.74;100.00
16016;BME280;8112;53.592;10.184;2023-08-07T02:17:24;100118.41;;;14.71;100.00
16016;BME280;8112;53.592;10.184;2023-08-07T02:22:27;100120.47;;;14.67;100.00
16016;BME280;8112;53.592;10.184;2023-08-07T02:27:29;100123.72;;;14.71;100.00
16016;BME280;8112;53.592;10.184;2023-08-07T02:32:30;100109.75;;;14.68;100.00
16016;BME280;8112;53.592;10.184;2023-08-07T02:37:33;100108.91;;;14.68;100.00
16016;BME280;8112;53.592;10.184;2023-08-07T02:42:35;100111.44;;;14.70;100.00
16016;BME280;8112;53.592;10.184;2023-08-07T02:47:37;100115.75;;;14.71;100.00
16016;BME280;8112;53.592;10.184;2023-08-07T02:52:40;100124.00;;;14.67;100.00
16016;BME280;8112;53.592;10.184;2023-08-07T02:57:41;100130.25;;;14.66;100.00
16016;BME280;8112;53.592;10.184;2023-08-07T03:02:43;100122.16;;;14.68;100.00
16016;BME280;8112;53.592;10.184;2023-08-07T03:07:46;100131.78;;;14.69;100.00
16016;BME280;8112;53.592;10.184;2023-08-07T03:12:48;100135.69;;;14.86;100.00
16016;BME280;8112;53.592;10.184;2023-08-07T03:17:50;100125.22;;;14.94;100.00
16016;BME280;8112;53.592;10.184;2023-08-07T03:22:53;100130.25;;;14.98;100.00
16016;BME280;8112;53.592;10.184;2023-08-07T03:27:54;100133.63;;;15.00;100.00
16016;BME280;8112;53.592;10.184;2023-08-07T03:32:57;100128.06;;;15.03;100.00
16016;BME280;8112;53.592;10.184;2023-08-07T03:38:00;100136.88;;;15.13;100.00
16016;BME280;8112;53.592;10.184;2023-08-07T03:43:02;100129.63;;;15.15;100.00
16016;BME280;8112;53.592;10.184;2023-08-07T03:48:04;100126.28;;;15.13;100.00
16016;BME280;8112;53.592;10.184;2023-08-07T03:53:07;100127.78;;;15.06;100.00
16016;BME280;8112;53.592;10.184;2023-08-07T03:58:15;100130.03;;;15.01;100.00
16016;BME280;8112;53.592;10.184;2023-08-07T04:03:17;100123.97;;;14.99;100.00
16016;BME280;8112;53.592;10.184;2023-08-07T04:08:20;100119.97;;;15.04;100.00
16016;BME280;8112;53.592;10.184;2023-08-07T04:13:22;100123.88;;;15.10;100.00
16016;BME280;8112;53.592;10.184;2023-08-07T04:18:24;100107.38;;;15.06;100.00
16016;BME280;8112;53.592;10.184;2023-08-07T04:23:27;100121.66;;;15.15;100.00
16016;BME280;8112;53.592;10.184;2023-08-07T04:28:29;100128.13;;;15.22;100.00
16016;BME280;8112;53.592;10.184;2023-08-07T04:33:30;100125.31;;;15.24;100.00
16016;BME280;8112;53.592;10.184;2023-08-07T04:38:33;100129.25;;;15.30;100.00
16016;BME280;8112;53.592;10.184;2023-08-07T04:43:35;100135.25;;;15.32;100.00
16016;BME280;8112;53.592;10.184;2023-08-07T04:48:37;100137.63;;;15.35;100.00
16016;BME280;8112;53.592;10.184;2023-08-07T04:53:40;100136.41;;;15.49;100.00
16016;BME280;8112;53.592;10.184;2023-08-07T04:58:42;100140.31;;;15.54;100.00
16016;BME280;8112;53.592;10.184;2023-08-07T05:03:43;100132.78;;;15.60;100.00
16016;BME280;8112;53.592;10.184;2023-08-07T05:08:46;100137.66;;;15.64;100.00
16016;BME280;8112;53.592;10.184;2023-08-07T05:13:48;100138.53;;;15.75;100.00
16016;BME280;8112;53.592;10.184;2023-08-07T05:18:50;100133.22;;;15.85;100.00
16016;BME280;8112;53.592;10.184;2023-08-07T05:23:53;100132.44;;;15.94;100.00
16016;BME280;8112;53.592;10.184;2023-08-07T05:28:55;100132.53;;;16.02;100.00
16016;BME280;8112;53.592;10.184;2023-08-07T05:33:58;100124.84;;;16.09;100.00
16016;BME280;8112;53.592;10.184;2023-08-07T05:39:01;100138.53;;;16.14;100.00
16016;BME280;8112;53.592;10.184;2023-08-07T05:44:04;100131.81;;;16.20;100.00
16016;BME280;8112;53.592;10.184;2023-08-07T05:49:06;100138.00;;;16.10;100.00
16016;BME280;8112;53.592;10.184;2023-08-07T05:54:09;100132.41;;;16.14;100.00
16016;BME280;8112;53.592;10.184;2023-08-07T05:59:11;100143.13;;;16.42;100.00
16016;BME280;8112;53.592;10.184;2023-08-07T06:04:12;100132.47;;;16.42;100.00
16016;BME280;8112;53.592;10.184;2023-08-07T06:09:15;100123.06;;;16.57;100.00
16016;BME280;8112;53.592;10.184;2023-08-07T06:14:17;100129.06;;;16.59;100.00
16016;BME280;8112;53.592;10.184;2023-08-07T06:19:19;100117.72;;;16.67;100.00
16016;BME280;8112;53.592;10.184;2023-08-07T06:24:24;100122.13;;;16.86;100.00
16016;BME280;8112;53.592;10.184;2023-08-07T06:29:26;100112.25;;;16.96;100.00
16016;BME280;8112;53.592;10.184;2023-08-07T06:34:28;100120.41;;;16.95;100.00
16016;BME280;8112;53.592;10.184;2023-08-07T06:39:31;100115.63;;;16.99;100.00
16016;BME280;8112;53.592;10.184;2023-08-07T06:44:33;100120.38;;;17.05;100.00
16016;BME280;8112;53.592;10.184;2023-08-07T06:49:34;100106.91;;;17.06;100.00
16016;BME280;8112;53.592;10.184;2023-08-07T06:54:37;100111.25;;;17.07;100.00
16016;BME280;8112;53.592;10.184;2023-08-07T06:59:39;100127.34;;;17.16;100.00
16016;BME280;8112;53.592;10.184;2023-08-07T07:04:41;100121.81;;;16.99;100.00
16016;BME280;8112;53.592;10.184;2023-08-07T07:09:44;100116.63;;;17.26;100.00
16016;BME280;8112;53.592;10.184;2023-08-07T07:14:45;100118.84;;;17.48;100.00
16016;BME280;8112;53.592;10.184;2023-08-07T07:19:47;100118.47;;;17.43;100.00
16016;BME280;8112;53.592;10.184;2023-08-07T07:24:50;100128.63;;;17.58;100.00
16016;BME280;8112;53.592;10.184;2023-08-07T07:29:52;100110.19;;;17.83;100.00
16016;BME280;8112;53.592;10.184;2023-08-07T07:34:56;100111.78;;;17.57;100.00
16016;BME280;8112;53.592;10.184;2023-08-07T07:39:59;100123.81;;;17.15;100.00
16016;BME280;8112;53.592;10.184;2023-08-07T07:45:01;100135.00;;;16.81;100.00
16016;BME280;8112;53.592;10.184;2023-08-07T07:50:07;100144.63;;;16.92;100.00
16016;BME280;8112;53.592;10.184;2023-08-07T07:55:11;100146.13;;;17.78;100.00
16016;BME280;8112;53.592;10.184;2023-08-07T08:00:14;100117.31;;;18.18;100.00
16016;BME280;8112;53.592;10.184;2023-08-07T08:05:16;100136.19;;;18.25;100.00
16016;BME280;8112;53.592;10.184;2023-08-07T08:10:19;100137.63;;;18.37;100.00
16016;BME280;8112;53.592;10.184;2023-08-07T08:15:21;100135.19;;;18.26;100.00
16016;BME280;8112;53.592;10.184;2023-08-07T08:20:23;100147.78;;;17.61;100.00
16016;BME280;8112;53.592;10.184;2023-08-07T08:25:26;100168.09;;;17.16;100.00
16016;BME280;8112;53.592;10.184;2023-08-07T08:30:28;100180.03;;;17.12;100.00
16016;BME280;8112;53.592;10.184;2023-08-07T08:35:30;100179.97;;;17.68;100.00
16016;BME280;8112;53.592;10.184;2023-08-07T08:40:33;100193.34;;;17.86;100.00
16016;BME280;8112;53.592;10.184;2023-08-07T08:45:37;100188.28;;;17.37;100.00
16016;BME280;8112;53.592;10.184;2023-08-07T08:50:39;100188.31;;;17.09;100.00
16016;BME280;8112;53.592;10.184;2023-08-07T08:55:42;100210.84;;;16.47;100.00
16016;BME280;8112;53.592;10.184;2023-08-07T09:00:47;100224.72;;;15.41;100.00
16016;BME280;8112;53.592;10.184;2023-08-07T09:05:49;100230.41;;;15.36;100.00
16016;BME280;8112;53.592;10.184;2023-08-07T09:10:56;100259.66;;;15.15;100.00
16016;BME280;8112;53.592;10.184;2023-08-07T09:15:58;100255.97;;;15.06;100.00
16016;BME280;8112;53.592;10.184;2023-08-07T09:21:01;100242.56;;;15.29;100.00
16016;BME280;8112;53.592;10.184;2023-08-07T09:26:05;100235.38;;;16.12;100.00
16016;BME280;8112;53.592;10.184;2023-08-07T09:31:07;100221.25;;;17.36;100.00
16016;BME280;8112;53.592;10.184;2023-08-07T09:36:09;100221.84;;;18.22;100.00
16016;BME280;8112;53.592;10.184;2023-08-07T09:41:17;100203.75;;;17.33;100.00
16016;BME280;8112;53.592;10.184;2023-08-07T09:46:19;100216.13;;;17.24;100.00
16016;BME280;8112;53.592;10.184;2023-08-07T09:51:21;100225.50;;;17.57;100.00
16016;BME280;8112;53.592;10.184;2023-08-07T09:56:24;100220.13;;;17.66;100.00
16016;BME280;8112;53.592;10.184;2023-08-07T10:01:26;100205.94;;;18.30;100.00
16016;BME280;8112;53.592;10.184;2023-08-07T10:06:28;100210.44;;;18.83;100.00
16016;BME280;8112;53.592;10.184;2023-08-07T10:11:31;100194.53;;;19.34;100.00
16016;BME280;8112;53.592;10.184;2023-08-07T10:16:33;100215.66;;;19.19;100.00
16016;BME280;8112;53.592;10.184;2023-08-07T10:21:40;100213.88;;;19.28;100.00
16016;BME280;8112;53.592;10.184;2023-08-07T10:26:45;100208.28;;;19.56;100.00
16016;BME280;8112;53.592;10.184;2023-08-07T10:31:48;100204.81;;;19.72;100.00
16016;BME280;8112;53.592;10.184;2023-08-07T10:36:50;100196.72;;;20.15;100.00
16016;BME280;8112;53.592;10.184;2023-08-07T10:41:55;100197.97;;;19.61;100.00
16016;BME280;8112;53.592;10.184;2023-08-07T10:46:57;100216.81;;;19.16;100.00
16016;BME280;8112;53.592;10.184;2023-08-07T10:52:02;100212.25;;;19.43;100.00
16016;BME280;8112;53.592;10.184;2023-08-07T10:57:10;100212.63;;;19.57;100.00
16016;BME280;8112;53.592;10.184;2023-08-07T11:02:12;100216.97;;;19.58;100.00
16016;BME280;8112;53.592;10.184;2023-08-07T11:07:23;100229.56;;;19.31;100.00
16016;BME280;8112;53.592;10.184;2023-08-07T11:12:26;100217.91;;;18.79;100.00
16016;BME280;8112;53.592;10.184;2023-08-07T11:17:29;100206.06;;;20.27;100.00
16016;BME280;8112;53.592;10.184;2023-08-07T11:22:30;100217.13;;;20.16;100.00
16016;BME280;8112;53.592;10.184;2023-08-07T11:27:33;100234.31;;;19.54;100.00
16016;BME280;8112;53.592;10.184;2023-08-07T11:32:36;100247.41;;;19.22;100.00
16016;BME280;8112;53.592;10.184;2023-08-07T11:37:45;100228.94;;;18.84;100.00
16016;BME280;8112;53.592;10.184;2023-08-07T11:42:49;100198.66;;;19.28;100.00
16016;BME280;8112;53.592;10.184;2023-08-07T11:47:50;100227.84;;;19.64;100.00
16016;BME280;8112;53.592;10.184;2023-08-07T11:52:52;100252.91;;;19.63;100.00
16016;BME280;8112;53.592;10.184;2023-08-07T11:57:55;100260.25;;;18.74;100.00
16016;BME280;8112;53.592;10.184;2023-08-07T12:02:57;100272.50;;;18.58;100.00
16016;BME280;8112;53.592;10.184;2023-08-07T12:07:59;100282.16;;;18.77;100.00
16016;BME280;8112;53.592;10.184;2023-08-07T12:13:02;100264.47;;;18.76;100.00
16016;BME280;8112;53.592;10.184;2023-08-07T12:18:07;100303.00;;;17.91;100.00
16016;BME280;8112;53.592;10.184;2023-08-07T12:23:13;100318.06;;;17.83;100.00
16016;BME280;8112;53.592;10.184;2023-08-07T12:28:17;100302.03;;;18.11;100.00
16016;BME280;8112;53.592;10.184;2023-08-07T12:33:19;100309.22;;;18.64;100.00
16016;BME280;8112;53.592;10.184;2023-08-07T12:38:21;100273.38;;;18.85;100.00
16016;BME280;8112;53.592;10.184;2023-08-07T12:43:25;100301.97;;;18.57;100.00
16016;BME280;8112;53.592;10.184;2023-08-07T12:48:26;100305.91;;;17.98;100.00
16016;BME280;8112;53.592;10.184;2023-08-07T12:53:28;100299.66;;;17.89;100.00
16016;BME280;8112;53.592;10.184;2023-08-07T12:58:33;100317.88;;;18.40;100.00
16016;BME280;8112;53.592;10.184;2023-08-07T13:03:35;100305.66;;;18.37;100.00
16016;BME280;8112;53.592;10.184;2023-08-07T13:08:37;100319.97;;;18.55;100.00
16016;BME280;8112;53.592;10.184;2023-08-07T13:13:40;100321.84;;;18.99;100.00
16016;BME280;8112;53.592;10.184;2023-08-07T13:18:42;100310.88;;;19.63;100.00
16016;BME280;8112;53.592;10.184;2023-08-07T13:23:44;100306.97;;;19.49;100.00
16016;BME280;8112;53.592;10.184;2023-08-07T13:28:47;100318.25;;;19.69;100.00
16016;BME280;8112;53.592;10.184;2023-08-07T13:33:48;100322.84;;;19.50;100.00
16016;BME280;8112;53.592;10.184;2023-08-07T13:38:50;100322.97;;;19.84;100.00
16016;BME280;8112;53.592;10.184;2023-08-07T13:43:53;100326.66;;;19.48;100.00
16016;BME280;8112;53.592;10.184;2023-08-07T13:48:55;100324.72;;;19.66;100.00
16016;BME280;8112;53.592;10.184;2023-08-07T13:53:56;100357.47;;;19.07;100.00
16016;BME280;8112;53.592;10.184;2023-08-07T13:58:59;100349.34;;;18.73;100.00
16016;BME280;8112;53.592;10.184;2023-08-07T14:04:01;100369.44;;;18.31;100.00
16016;BME280;8112;53.592;10.184;2023-08-07T14:09:03;100388.69;;;17.97;100.00
16016;BME280;8112;53.592;10.184;2023-08-07T14:14:06;100392.44;;;18.14;100.00
16016;BME280;8112;53.592;10.184;2023-08-07T14:19:08;100409.19;;;18.24;100.00
16016;BME280;8112;53.592;10.184;2023-08-07T14:24:09;100396.44;;;18.46;100.00
16016;BME280;8112;53.592;10.184;2023-08-07T14:29:13;100382.09;;;18.83;100.00
16016;BME280;8112;53.592;10.184;2023-08-07T14:34:15;100411.72;;;19.08;100.00
16016;BME280;8112;53.592;10.184;2023-08-07T14:39:17;100393.72;;;19.10;100.00
16016;BME280;8112;53.592;10.184;2023-08-07T14:44:20;100409.97;;;19.17;100.00
16016;BME280;8112;53.592;10.184;2023-08-07T14:49:21;100396.75;;;18.79;100.00
16016;BME280;8112;53.592;10.184;2023-08-07T14:54:23;100394.34;;;19.04;100.00
16016;BME280;8112;53.592;10.184;2023-08-07T14:59:26;100401.41;;;18.13;100.00
16016;BME280;8112;53.592;10.184;2023-08-07T15:04:28;100449.03;;;17.40;100.00
16016;BME280;8112;53.592;10.184;2023-08-07T15:09:29;100484.94;;;16.15;100.00
16016;BME280;8112;53.592;10.184;2023-08-07T15:14:33;100467.41;;;16.43;100.00
16016;BME280;8112;53.592;10.184;2023-08-07T15:19:34;100484.53;;;16.70;100.00
16016;BME280;8112;53.592;10.184;2023-08-07T15:24:36;100499.34;;;15.70;100.00
16016;BME280;8112;53.592;10.184;2023-08-07T15:29:39;100492.00;;;15.41;100.00
16016;BME280;8112;53.592;10.184;2023-08-07T15:34:47;100467.38;;;16.33;100.00
16016;BME280;8112;53.592;10.184;2023-08-07T15:39:49;100474.25;;;17.16;100.00
16016;BME280;8112;53.592;10.184;2023-08-07T15:44:52;100467.75;;;16.60;100.00
16016;BME280;8112;53.592;10.184;2023-08-07T15:49:54;100503.28;;;16.18;100.00
16016;BME280;8112;53.592;10.184;2023-08-07T15:54:55;100495.72;;;15.71;100.00
16016;BME280;8112;53.592;10.184;2023-08-07T15:59:58;100502.22;;;15.99;100.00
16016;BME280;8112;53.592;10.184;2023-08-07T16:05:00;100497.63;;;16.32;100.00
16016;BME280;8112;53.592;10.184;2023-08-07T16:10:03;100491.03;;;16.36;100.00
16016;BME280;8112;53.592;10.184;2023-08-07T16:15:06;100490.06;;;16.37;100.00
16016;BME280;8112;53.592;10.184;2023-08-07T16:20:09;100472.06;;;16.61;100.00
16016;BME280;8112;53.592;10.184;2023-08-07T16:25:11;100504.31;;;16.67;100.00
16016;BME280;8112;53.592;10.184;2023-08-07T16:30:14;100512.34;;;16.15;100.00
16016;BME280;8112;53.592;10.184;2023-08-07T16:35:15;100497.19;;;15.85;100.00
16016;BME280;8112;53.592;10.184;2023-08-07T16:40:19;100511.69;;;16.23;100.00
16016;BME280;8112;53.592;10.184;2023-08-07T16:45:22;100505.22;;;17.17;100.00
16016;BME280;8112;53.592;10.184;2023-08-07T16:50:25;100487.13;;;16.91;100.00
16016;BME280;8112;53.592;10.184;2023-08-07T16:55:27;100492.63;;;16.49;100.00
16016;BME280;8112;53.592;10.184;2023-08-07T17:00:30;100494.66;;;16.66;100.00
16016;BME280;8112;53.592;10.184;2023-08-07T17:05:32;100486.53;;;16.88;100.00
16016;BME280;8112;53.592;10.184;2023-08-07T17:10:33;100470.91;;;17.14;100.00
16016;BME280;8112;53.592;10.184;2023-08-07T17:15:37;100478.59;;;17.17;100.00
16016;BME280;8112;53.592;10.184;2023-08-07T17:20:38;100486.16;;;17.02;100.00
16016;BME280;8112;53.592;10.184;2023-08-07T17:25:40;100480.94;;;16.91;100.00
16016;BME280;8112;53.592;10.184;2023-08-07T17:30:43;100472.88;;;17.02;100.00
16016;BME280;8112;53.592;10.184;2023-08-07T17:35:45;100463.41;;;16.59;100.00
16016;BME280;8112;53.592;10.184;2023-08-07T17:40:47;100470.16;;;16.32;100.00
16016;BME280;8112;53.592;10.184;2023-08-07T17:45:51;100474.59;;;16.12;100.00
16016;BME280;8112;53.592;10.184;2023-08-07T17:50:52;100493.06;;;15.71;100.00
16016;BME280;8112;53.592;10.184;2023-08-07T17:55:54;100494.16;;;14.93;100.00
16016;BME280;8112;53.592;10.184;2023-08-07T18:00:58;100496.59;;;14.73;100.00
16016;BME280;8112;53.592;10.184;2023-08-07T18:05:59;100498.34;;;14.95;100.00
16016;BME280;8112;53.592;10.184;2023-08-07T18:11:01;100497.88;;;14.90;100.00
16016;BME280;8112;53.592;10.184;2023-08-07T18:16:05;100500.94;;;14.74;100.00
16016;BME280;8112;53.592;10.184;2023-08-07T18:21:06;100499.59;;;14.80;100.00
16016;BME280;8112;53.592;10.184;2023-08-07T18:26:08;100514.31;;;14.73;100.00
16016;BME280;8112;53.592;10.184;2023-08-07T18:31:12;100512.25;;;14.65;100.00
16016;BME280;8112;53.592;10.184;2023-08-07T18:36:13;100534.69;;;14.27;100.00
16016;BME280;8112;53.592;10.184;2023-08-07T18:41:15;100526.19;;;13.99;100.00
16016;BME280;8112;53.592;10.184;2023-08-07T18:46:18;100524.72;;;13.72;100.00
16016;BME280;8112;53.592;10.184;2023-08-07T18:51:20;100528.22;;;13.83;100.00
16016;BME280;8112;53.592;10.184;2023-08-07T18:56:21;100518.88;;;13.91;100.00
16016;BME280;8112;53.592;10.184;2023-08-07T19:01:24;100526.00;;;14.02;100.00
16016;BME280;8112;53.592;10.184;2023-08-07T19:06:26;100530.56;;;14.11;100.00
16016;BME280;8112;53.592;10.184;2023-08-07T19:11:29;100542.75;;;14.14;100.00
16016;BME280;8112;53.592;10.184;2023-08-07T19:16:32;100531.41;;;14.23;100.00
16016;BME280;8112;53.592;10.184;2023-08-07T19:21:34;100532.13;;;14.25;100.00
16016;BME280;8112;53.592;10.184;2023-08-07T19:26:35;100539.38;;;14.23;100.00
16016;BME280;8112;53.592;10.184;2023-08-07T19:31:39;100534.09;;;14.34;100.00
16016;BME280;8112;53.592;10.184;2023-08-07T19:36:40;100532.03;;;14.27;100.00
16016;BME280;8112;53.592;10.184;2023-08-07T19:41:45;100528.53;;;14.26;100.00
16016;BME280;8112;53.592;10.184;2023-08-07T19:46:48;100533.13;;;14.13;100.00
16016;BME280;8112;53.592;10.184;2023-08-07T19:51:50;100537.06;;;14.07;100.00
16016;BME280;8112;53.592;10.184;2023-08-07T19:56:51;100534.28;;;14.08;100.00
16016;BME280;8112;53.592;10.184;2023-08-07T20:01:54;100530.06;;;14.17;100.00
16016;BME280;8112;53.592;10.184;2023-08-07T20:06:56;100540.59;;;14.30;100.00
16016;BME280;8112;53.592;10.184;2023-08-07T20:11:57;100553.34;;;14.25;100.00
16016;BME280;8112;53.592;10.184;2023-08-07T20:17:00;100559.47;;;14.03;100.00
16016;BME280;8112;53.592;10.184;2023-08-07T20:22:02;100549.25;;;14.09;100.00
16016;BME280;8112;53.592;10.184;2023-08-07T20:27:04;100541.53;;;14.18;100.00
16016;BME280;8112;53.592;10.184;2023-08-07T20:32:08;100554.28;;;14.01;100.00
16016;BME280;8112;53.592;10.184;2023-08-07T20:37:09;100563.09;;;14.02;100.00
16016;BME280;8112;53.592;10.184;2023-08-07T20:42:11;100565.88;;;14.11;100.00
16016;BME280;8112;53.592;10.184;2023-08-07T20:47:15;100556.00;;;14.14;100.00
16016;BME280;8112;53.592;10.184;2023-08-07T20:52:17;100547.53;;;14.08;100.00
16016;BME280;8112;53.592;10.184;2023-08-07T20:57:18;100568.28;;;14.15;100.00
16016;BME280;8112;53.592;10.184;2023-08-07T21:02:21;100545.25;;;14.15;100.00
16016;BME280;8112;53.592;10.184;2023-08-07T21:07:23;100562.75;;;14.18;100.00
16016;BME280;8112;53.592;10.184;2023-08-07T21:12:25;100556.97;;;14.13;100.00
16016;BME280;8112;53.592;10.184;2023-08-07T21:17:28;100560.09;;;14.18;100.00
16016;BME280;8112;53.592;10.184;2023-08-07T21:22:30;100559.47;;;14.14;100.00
16016;BME280;8112;53.592;10.184;2023-08-07T21:27:31;100557.91;;;14.11;100.00
16016;BME280;8112;53.592;10.184;2023-08-07T21:32:34;100542.50;;;14.17;100.00
16016;BME280;8112;53.592;10.184;2023-08-07T21:37:37;100523.72;;;14.20;100.00
16016;BME280;8112;53.592;10.184;2023-08-07T21:42:39;100534.78;;;14.25;100.00
16016;BME280;8112;53.592;10.184;2023-08-07T21:47:42;100513.72;;;14.23;100.00
16016;BME280;8112;53.592;10.184;2023-08-07T21:52:44;100514.69;;;14.22;100.00
16016;BME280;8112;53.592;10.184;2023-08-07T21:57:46;100505.28;;;14.18;100.00
16016;BME280;8112;53.592;10.184;2023-08-07T22:02:49;100489.84;;;14.12;100.00
16016;BME280;8112;53.592;10.184;2023-08-07T22:07:51;100505.50;;;14.15;100.00
16016;BME280;8112;53.592;10.184;2023-08-07T22:12:52;100502.03;;;14.15;100.00
16016;BME280;8112;53.592;10.184;2023-08-07T22:17:56;100488.31;;;14.09;100.00
16016;BME280;8112;53.592;10.184;2023-08-07T22:22:57;100485.28;;;14.03;100.00
16016;BME280;8112;53.592;10.184;2023-08-07T22:27:59;100489.50;;;14.05;100.00
16016;BME280;8112;53.592;10.184;2023-08-07T22:33:02;100506.69;;;14.00;100.00
16016;BME280;8112;53.592;10.184;2023-08-07T22:38:04;100508.38;;;13.89;100.00
16016;BME280;8112;53.592;10.184;2023-08-07T22:43:05;100499.00;;;13.49;100.00
16016;BME280;8112;53.592;10.184;2023-08-07T22:48:09;100510.44;;;13.25;100.00
16016;BME280;8112;53.592;10.184;2023-08-07T22:53:10;100526.50;;;13.11;100.00
16016;BME280;8112;53.592;10.184;2023-08-07T22:58:12;100529.81;;;13.02;100.00
16016;BME280;8112;53.592;10.184;2023-08-07T23:03:15;100532.63;;;12.87;100.00
16016;BME280;8112;53.592;10.184;2023-08-07T23:08:17;100529.00;;;12.88;100.00
16016;BME280;8112;53.592;10.184;2023-08-07T23:13:20;100534.00;;;12.80;100.00
16016;BME280;8112;53.592;10.184;2023-08-07T23:18:23;100535.84;;;12.66;100.00
16016;BME280;8112;53.592;10.184;2023-08-07T23:23:25;100546.09;;;12.58;100.00
16016;BME280;8112;53.592;10.184;2023-08-07T23:28:26;100550.03;;;12.39;100.00
16016;BME280;8112;53.592;10.184;2023-08-07T23:33:29;100541.59;;;12.34;100.00
16016;BME280;8112;53.592;10.184;2023-08-07T23:38:31;100543.94;;;12.26;100.00
16016;BME280;8112;53.592;10.184;2023-08-07T23:43:33;100538.97;;;12.08;100.00
16016;BME280;8112;53.592;10.184;2023-08-07T23:48:36;100545.72;;;12.13;100.00
16016;BME280;8112;53.592;10.184;2023-08-07T23:53:39;100565.16;;;12.11;100.00
16016;BME280;8112;53.592;10.184;2023-08-07T23:58:40;100559.56;;;12.16;100.00
